createdAt,value
2018-09-09T00:00:47.058Z,12.70
2018-09-09T00:03:15.667Z,12.70
2018-09-09T00:05:44.259Z,12.60
2018-09-09T00:08:12.818Z,12.60
2018-09-09T00:10:41.418Z,12.60
2018-09-09T00:13:09.999Z,12.50
2018-09-09T00:15:38.595Z,12.60
2018-09-09T00:18:07.155Z,12.60
2018-09-09T00:20:35.711Z,12.60
2018-09-09T00:23:04.310Z,12.60
2018-09-09T00:25:33.026Z,12.60
2018-09-09T00:28:01.612Z,12.60
2018-09-09T00:30:30.159Z,12.70
2018-09-09T00:32:58.730Z,12.70
2018-09-09T00:35:27.318Z,12.80
2018-09-09T00:37:55.914Z,12.70
2018-09-09T00:40:24.466Z,12.80
2018-09-09T00:42:53.182Z,12.80
2018-09-09T00:45:21.791Z,12.70
2018-09-09T00:47:50.376Z,12.70
2018-09-09T00:50:24.359Z,12.70
2018-09-09T00:52:58.241Z,12.70
2018-09-09T00:55:26.810Z,12.70
2018-09-09T00:57:55.383Z,12.60
2018-09-09T01:00:29.247Z,12.50
2018-09-09T01:02:57.949Z,12.50
2018-09-09T01:05:26.654Z,12.50
2018-09-09T01:07:55.654Z,12.50
2018-09-09T01:10:24.226Z,12.50
2018-09-09T01:12:52.782Z,12.50
2018-09-09T01:15:21.420Z,12.50
2018-09-09T01:17:49.969Z,12.50
2018-09-09T01:20:18.562Z,12.50
2018-09-09T01:22:47.119Z,12.50
2018-09-09T01:25:16.015Z,12.50
2018-09-09T01:27:44.670Z,12.50
2018-09-09T01:30:13.275Z,12.50
2018-09-09T01:32:41.803Z,12.50
2018-09-09T01:35:10.427Z,12.50
2018-09-09T01:37:39.050Z,12.50
2018-09-09T01:40:07.646Z,12.50
2018-09-09T01:42:36.182Z,12.50
2018-09-09T01:45:04.726Z,12.50
2018-09-09T01:47:33.303Z,12.50
2018-09-09T01:50:01.822Z,12.50
2018-09-09T01:52:30.427Z,12.50
2018-09-09T01:54:59.004Z,12.50
2018-09-09T01:57:27.758Z,12.40
2018-09-09T01:59:56.362Z,12.40
2018-09-09T02:02:24.899Z,12.40
2018-09-09T02:04:53.538Z,12.30
2018-09-09T02:07:22.099Z,12.30
2018-09-09T02:09:50.712Z,12.30
2018-09-09T02:12:19.331Z,12.20
2018-09-09T02:14:47.940Z,12.20
2018-09-09T02:17:16.498Z,12.20
2018-09-09T02:19:45.091Z,12.20
2018-09-09T02:22:13.726Z,12.20
2018-09-09T02:24:42.295Z,12.10
2018-09-09T02:27:17.499Z,12.10
2018-09-09T02:29:46.127Z,12.10
2018-09-09T02:32:14.697Z,12.10
2018-09-09T02:34:43.970Z,12.00
2018-09-09T02:37:12.543Z,12.00
2018-09-09T02:39:41.075Z,12.00
2018-09-09T02:42:09.735Z,12.00
2018-09-09T02:44:38.344Z,11.90
2018-09-09T02:47:07.022Z,11.90
2018-09-09T02:49:35.651Z,11.80
2018-09-09T02:52:04.239Z,11.90
2018-09-09T02:54:32.803Z,11.80
2018-09-09T02:57:01.574Z,11.80
2018-09-09T02:59:30.175Z,11.90
2018-09-09T03:01:58.827Z,11.90
2018-09-09T03:04:27.387Z,11.90
2018-09-09T03:06:55.975Z,11.90
2018-09-09T03:09:24.591Z,11.90
2018-09-09T03:11:53.511Z,12.00
2018-09-09T03:14:22.046Z,12.00
2018-09-09T03:16:50.640Z,12.00
2018-09-09T03:19:19.225Z,12.10
2018-09-09T03:21:47.882Z,12.10
2018-09-09T03:24:16.506Z,12.10
2018-09-09T03:26:45.108Z,12.20
2018-09-09T03:29:13.742Z,12.20
2018-09-09T03:31:44.287Z,12.20
2018-09-09T03:34:12.890Z,12.20
2018-09-09T03:36:41.549Z,12.20
2018-09-09T03:39:10.407Z,12.20
2018-09-09T03:41:39.206Z,12.20
2018-09-09T03:44:07.779Z,12.30
2018-09-09T03:46:36.383Z,12.30
2018-09-09T03:49:05.012Z,12.30
2018-09-09T03:51:33.535Z,12.40
2018-09-09T03:54:02.183Z,12.40
2018-09-09T03:56:30.761Z,12.50
2018-09-09T03:58:59.347Z,12.50
2018-09-09T04:01:27.936Z,12.50
2018-09-09T04:03:56.723Z,12.50
2018-09-09T04:06:25.698Z,12.50
2018-09-09T04:08:54.272Z,12.50
2018-09-09T04:11:22.870Z,12.60
2018-09-09T04:13:51.571Z,12.60
2018-09-09T04:16:20.091Z,12.60
2018-09-09T04:18:48.760Z,12.60
2018-09-09T04:21:17.377Z,12.70
2018-09-09T04:23:45.967Z,12.70
2018-09-09T04:26:14.542Z,12.80
2018-09-09T04:28:43.127Z,12.80
2018-09-09T04:31:11.899Z,12.80
2018-09-09T04:33:40.454Z,12.90
2018-09-09T04:36:09.294Z,12.90
2018-09-09T04:38:37.891Z,12.90
2018-09-09T04:41:06.503Z,12.90
2018-09-09T04:43:35.268Z,12.90
2018-09-09T04:46:03.961Z,12.90
2018-09-09T04:48:32.466Z,12.90
2018-09-09T04:51:01.046Z,12.90
2018-09-09T04:53:29.657Z,12.90
2018-09-09T04:55:58.259Z,12.90
2018-09-09T04:58:26.823Z,13.00
2018-09-09T05:00:55.463Z,13.00
2018-09-09T05:03:24.038Z,13.00
2018-09-09T05:05:52.623Z,13.00
2018-09-09T05:08:21.314Z,12.90
2018-09-09T05:10:49.915Z,12.90
2018-09-09T05:13:25.122Z,13.00
2018-09-09T05:15:53.703Z,13.00
2018-09-09T05:18:22.842Z,13.00
2018-09-09T05:20:51.410Z,13.00
2018-09-09T05:23:19.993Z,13.10
2018-09-09T05:25:48.982Z,13.10
2018-09-09T05:28:17.555Z,13.10
2018-09-09T05:30:46.096Z,13.10
2018-09-09T05:33:14.699Z,13.10
2018-09-09T05:35:44.242Z,13.10
2018-09-09T05:38:13.174Z,13.20
2018-09-09T05:40:41.685Z,13.20
2018-09-09T05:43:10.447Z,13.20
2018-09-09T05:45:39.023Z,13.40
2018-09-09T05:48:07.630Z,13.40
2018-09-09T05:50:36.275Z,13.50
2018-09-09T05:53:04.924Z,13.50
2018-09-09T05:55:33.527Z,13.50
2018-09-09T05:58:02.207Z,13.60
2018-09-09T06:00:30.718Z,13.60
2018-09-09T06:02:59.358Z,13.60
2018-09-09T06:05:27.930Z,13.70
2018-09-09T06:07:56.448Z,13.70
2018-09-09T06:10:26.874Z,13.70
2018-09-09T06:12:55.482Z,13.80
2018-09-09T06:16:27.939Z,13.80
2018-09-09T06:18:56.602Z,13.90
2018-09-09T06:21:25.626Z,14.00
2018-09-09T06:23:54.215Z,14.00
2018-09-09T06:26:22.847Z,14.10
2018-09-09T06:28:51.398Z,14.20
2018-09-09T06:31:20.164Z,14.20
2018-09-09T06:33:48.826Z,14.30
2018-09-09T06:36:17.482Z,14.40
2018-09-09T06:38:46.035Z,14.40
2018-09-09T06:41:14.850Z,14.50
2018-09-09T06:43:43.402Z,14.60
2018-09-09T06:46:11.942Z,14.60
2018-09-09T06:48:40.650Z,14.60
2018-09-09T06:51:09.814Z,14.70
2018-09-09T06:53:38.402Z,14.70
2018-09-09T06:56:07.051Z,14.70
2018-09-09T06:58:35.639Z,14.80
2018-09-09T07:01:04.258Z,14.90
2018-09-09T07:03:32.831Z,14.90
2018-09-09T07:06:01.523Z,15.00
2018-09-09T07:08:30.297Z,15.00
2018-09-09T07:10:58.949Z,15.10
2018-09-09T07:13:27.445Z,15.20
2018-09-09T07:15:56.031Z,15.30
2018-09-09T07:18:24.682Z,15.20
2018-09-09T07:20:53.218Z,15.30
2018-09-09T07:23:21.850Z,15.40
2018-09-09T07:25:50.399Z,15.40
2018-09-09T07:28:19.000Z,15.40
2018-09-09T07:30:47.614Z,15.50
2018-09-09T07:33:16.227Z,15.60
2018-09-09T07:35:44.808Z,15.70
2018-09-09T07:38:13.490Z,15.70
2018-09-09T07:40:42.071Z,15.80
2018-09-09T07:43:10.638Z,15.90
2018-09-09T07:45:39.227Z,16.00
2018-09-09T07:48:07.994Z,16.10
2018-09-09T07:50:36.757Z,16.20
2018-09-09T07:53:05.762Z,16.30
2018-09-09T07:55:34.330Z,16.40
2018-09-09T07:58:03.023Z,16.40
2018-09-09T08:00:31.712Z,16.50
2018-09-09T08:03:00.829Z,16.60
2018-09-09T08:05:29.435Z,16.70
2018-09-09T08:07:58.056Z,16.80
2018-09-09T08:10:26.579Z,16.90
2018-09-09T08:12:55.135Z,17.00
2018-09-09T08:15:23.762Z,17.10
2018-09-09T08:17:52.338Z,17.10
2018-09-09T08:20:20.919Z,17.20
2018-09-09T08:22:49.531Z,17.20
2018-09-09T08:25:18.086Z,17.30
2018-09-09T08:27:46.711Z,17.30
2018-09-09T08:30:15.388Z,17.40
2018-09-09T08:32:43.988Z,17.30
2018-09-09T08:35:12.623Z,17.30
2018-09-09T08:37:41.170Z,17.30
2018-09-09T08:40:09.730Z,17.30
2018-09-09T08:42:38.317Z,17.30
2018-09-09T08:45:06.919Z,17.30
2018-09-09T08:47:35.514Z,17.30
2018-09-09T08:50:04.127Z,17.30
2018-09-09T08:52:32.666Z,17.30
2018-09-09T08:55:01.219Z,17.30
2018-09-09T08:57:29.792Z,17.30
2018-09-09T08:59:58.366Z,17.30
2018-09-09T09:02:26.938Z,17.40
2018-09-09T09:04:55.470Z,17.50
2018-09-09T09:07:24.517Z,17.50
2018-09-09T09:09:53.362Z,17.60
2018-09-09T09:12:21.937Z,17.60
2018-09-09T09:14:50.675Z,17.70
2018-09-09T09:17:19.239Z,17.80
2018-09-09T09:19:47.954Z,17.80
2018-09-09T09:22:16.906Z,17.90
2018-09-09T09:24:45.464Z,17.90
2018-09-09T09:27:13.991Z,18.00
2018-09-09T09:29:47.775Z,18.00
2018-09-09T09:32:20.538Z,18.10
2018-09-09T09:34:49.109Z,18.20
2018-09-09T09:37:17.974Z,18.30
2018-09-09T09:39:46.670Z,18.40
2018-09-09T09:42:15.262Z,18.60
2018-09-09T09:44:44.396Z,18.70
2018-09-09T09:47:13.452Z,18.70
2018-09-09T09:49:42.015Z,18.80
2018-09-09T09:52:10.798Z,18.90
2018-09-09T09:54:39.920Z,18.90
2018-09-09T09:57:09.247Z,18.90
2018-09-09T09:59:37.799Z,18.90
2018-09-09T10:02:06.519Z,19.10
2018-09-09T10:04:35.127Z,19.20
2018-09-09T10:07:05.744Z,19.20
2018-09-09T10:09:34.454Z,19.30
2018-09-09T10:12:03.014Z,19.20
2018-09-09T10:14:31.597Z,19.30
2018-09-09T10:17:00.436Z,19.40
2018-09-09T10:19:28.979Z,19.50
2018-09-09T10:21:57.570Z,19.70
2018-09-09T10:24:26.154Z,19.80
2018-09-09T10:26:54.722Z,20.00
2018-09-09T10:29:23.358Z,20.20
2018-09-09T10:31:51.970Z,20.30
2018-09-09T10:34:20.558Z,20.30
2018-09-09T10:36:49.175Z,20.20
2018-09-09T10:39:17.763Z,20.20
2018-09-09T10:41:46.339Z,20.10
2018-09-09T10:44:14.942Z,20.20
2018-09-09T10:46:43.583Z,20.20
2018-09-09T10:49:12.127Z,20.30
2018-09-09T10:51:40.757Z,20.40
2018-09-09T10:54:09.335Z,20.30
2018-09-09T10:56:37.946Z,20.40
2018-09-09T10:59:06.838Z,20.40
2018-09-09T11:01:35.398Z,20.50
2018-09-09T11:04:03.986Z,20.50
2018-09-09T11:06:32.587Z,20.50
2018-09-09T11:09:01.130Z,20.50
2018-09-09T11:11:29.691Z,20.50
2018-09-09T11:13:58.254Z,20.60
2018-09-09T11:16:26.807Z,20.50
2018-09-09T11:18:55.548Z,20.40
2018-09-09T11:21:24.202Z,20.40
2018-09-09T11:23:52.732Z,20.30
2018-09-09T11:26:21.275Z,20.40
2018-09-09T11:28:49.878Z,20.50
2018-09-09T11:31:18.414Z,20.60
2018-09-09T11:33:46.969Z,20.70
2018-09-09T11:36:16.386Z,20.80
2018-09-09T11:38:45.134Z,20.90
2018-09-09T11:41:13.735Z,21.00
2018-09-09T11:43:42.303Z,21.00
2018-09-09T11:46:10.891Z,21.00
2018-09-09T11:48:39.440Z,21.00
2018-09-09T11:51:08.032Z,21.00
2018-09-09T11:53:36.622Z,20.90
2018-09-09T11:56:05.287Z,20.90
2018-09-09T11:58:33.826Z,20.80
2018-09-09T12:01:02.454Z,20.80
2018-09-09T12:03:30.987Z,20.80
2018-09-09T12:05:59.531Z,20.90
2018-09-09T12:08:28.170Z,21.00
2018-09-09T12:11:03.686Z,21.00
2018-09-09T12:13:32.347Z,21.10
2018-09-09T12:16:00.919Z,21.10
2018-09-09T12:18:29.535Z,21.20
2018-09-09T12:20:58.113Z,21.20
2018-09-09T12:23:26.685Z,21.20
2018-09-09T12:25:55.211Z,21.30
2018-09-09T12:28:23.807Z,21.30
2018-09-09T12:30:52.370Z,21.40
2018-09-09T12:33:20.963Z,21.40
2018-09-09T12:35:50.518Z,21.50
2018-09-09T12:38:19.103Z,21.50
2018-09-09T12:40:47.902Z,21.50
2018-09-09T12:43:21.719Z,21.50
2018-09-09T12:45:55.698Z,21.60
2018-09-09T12:48:29.566Z,21.70
2018-09-09T12:50:58.407Z,21.80
2018-09-09T12:53:26.946Z,21.80
2018-09-09T12:55:55.506Z,21.80
2018-09-09T12:58:24.167Z,21.80
2018-09-09T13:00:52.786Z,21.80
2018-09-09T13:03:21.334Z,21.90
2018-09-09T13:05:49.870Z,21.80
2018-09-09T13:08:18.443Z,21.90
2018-09-09T13:10:47.003Z,21.90
2018-09-09T13:13:17.303Z,21.90
2018-09-09T13:15:46.295Z,21.90
2018-09-09T13:18:14.894Z,21.90
2018-09-09T13:20:43.999Z,21.90
2018-09-09T13:23:12.542Z,22.00
2018-09-09T13:25:41.307Z,22.20
2018-09-09T13:28:09.860Z,22.30
2018-09-09T13:30:38.423Z,22.30
2018-09-09T13:33:07.034Z,22.40
2018-09-09T13:35:35.979Z,22.40
2018-09-09T13:38:04.521Z,22.50
2018-09-09T13:40:33.087Z,22.60
2018-09-09T13:43:01.878Z,22.70
2018-09-09T13:45:30.645Z,22.80
2018-09-09T13:47:59.264Z,22.90
2018-09-09T13:50:27.819Z,22.90
2018-09-09T13:52:56.755Z,22.90
2018-09-09T13:55:25.336Z,22.90
2018-09-09T13:57:53.907Z,22.90
2018-09-09T14:00:22.526Z,22.80
2018-09-09T14:02:51.083Z,22.80
2018-09-09T14:05:19.647Z,22.70
2018-09-09T14:07:48.186Z,22.80
2018-09-09T14:10:16.799Z,22.80
2018-09-09T14:12:45.401Z,22.80
2018-09-09T14:15:14.039Z,22.90
2018-09-09T14:17:42.566Z,23.00
2018-09-09T14:20:11.122Z,23.10
2018-09-09T14:22:39.692Z,23.10
2018-09-09T14:25:08.295Z,23.20
2018-09-09T14:27:36.979Z,23.20
2018-09-09T14:30:05.630Z,23.10
2018-09-09T14:32:34.245Z,23.00
2018-09-09T14:35:02.831Z,22.90
2018-09-09T14:37:31.393Z,22.90
2018-09-09T14:39:59.976Z,23.00
2018-09-09T14:42:28.618Z,23.00
2018-09-09T14:44:57.232Z,23.10
2018-09-09T14:47:26.028Z,23.10
2018-09-09T14:49:54.655Z,23.10
2018-09-09T14:52:23.247Z,23.00
2018-09-09T14:54:51.807Z,23.00
2018-09-09T14:57:20.762Z,23.10
2018-09-09T14:59:49.346Z,23.10
2018-09-09T15:02:18.546Z,23.20
2018-09-09T15:04:49.682Z,23.30
2018-09-09T15:07:18.210Z,23.40
2018-09-09T15:09:46.837Z,23.50
2018-09-09T15:12:15.423Z,23.60
2018-09-09T15:14:44.235Z,23.50
2018-09-09T15:17:12.878Z,23.50
2018-09-09T15:19:41.519Z,23.40
2018-09-09T15:22:10.078Z,23.20
2018-09-09T15:24:38.626Z,23.20
2018-09-09T15:27:07.243Z,23.10
2018-09-09T15:29:35.822Z,23.00
2018-09-09T15:32:04.414Z,22.90
2018-09-09T15:34:32.955Z,22.80
2018-09-09T15:37:01.466Z,22.70
2018-09-09T15:39:30.291Z,22.70
2018-09-09T15:41:58.814Z,22.70
2018-09-09T15:44:27.407Z,22.70
2018-09-09T15:46:56.006Z,22.60
2018-09-09T15:49:24.595Z,22.50
2018-09-09T15:51:53.170Z,22.50
2018-09-09T15:54:21.791Z,22.40
2018-09-09T15:56:50.434Z,22.40
2018-09-09T15:59:19.030Z,22.30
2018-09-09T16:01:47.622Z,22.20
2018-09-09T16:04:16.202Z,22.20
2018-09-09T16:06:44.777Z,22.00
2018-09-09T16:09:13.302Z,21.90
2018-09-09T16:11:42.341Z,21.80
2018-09-09T16:14:10.891Z,21.80
2018-09-09T16:16:39.732Z,21.80
2018-09-09T16:19:08.279Z,21.80
2018-09-09T16:21:36.866Z,21.80
2018-09-09T16:24:05.528Z,21.90
2018-09-09T16:26:34.102Z,21.90
2018-09-09T16:29:02.628Z,21.80
2018-09-09T16:31:31.286Z,21.70
2018-09-09T16:33:59.847Z,21.70
2018-09-09T16:36:28.438Z,21.50
2018-09-09T16:38:56.994Z,21.50
2018-09-09T16:41:25.591Z,21.40
2018-09-09T16:43:54.162Z,21.30
2018-09-09T16:46:22.724Z,21.20
2018-09-09T16:48:51.440Z,21.20
2018-09-09T16:51:20.054Z,21.10
2018-09-09T16:53:48.618Z,21.10
2018-09-09T16:56:17.210Z,21.00
2018-09-09T16:58:45.778Z,20.90
2018-09-09T17:01:14.398Z,20.90
2018-09-09T17:03:43.082Z,20.80
2018-09-09T17:06:11.602Z,20.70
2018-09-09T17:08:40.151Z,20.50
2018-09-09T17:11:08.810Z,20.50
2018-09-09T17:13:37.383Z,20.40
2018-09-09T17:16:05.927Z,20.30
2018-09-09T17:18:34.474Z,20.30
2018-09-09T17:21:03.187Z,20.20
2018-09-09T17:23:31.771Z,20.10
2018-09-09T17:26:00.411Z,20.10
2018-09-09T17:28:29.059Z,20.00
2018-09-09T17:30:57.607Z,20.00
2018-09-09T17:33:26.337Z,19.90
2018-09-09T17:35:54.899Z,19.80
2018-09-09T17:38:23.428Z,19.70
2018-09-09T17:40:51.996Z,19.70
2018-09-09T17:43:20.594Z,19.60
2018-09-09T17:45:49.206Z,19.60
2018-09-09T17:48:17.842Z,19.50
2018-09-09T17:50:46.362Z,19.40
2018-09-09T17:53:14.899Z,19.30
2018-09-09T17:55:43.526Z,19.20
2018-09-09T17:58:12.068Z,19.10
2018-09-09T18:00:40.645Z,18.90
2018-09-09T18:03:09.171Z,18.80
2018-09-09T18:05:37.719Z,18.70
2018-09-09T18:08:06.295Z,18.50
2018-09-09T18:10:34.835Z,18.40
2018-09-09T18:13:03.403Z,18.20
2018-09-09T18:15:31.947Z,18.20
2018-09-09T18:18:00.622Z,18.10
2018-09-09T18:20:29.351Z,18.00
2018-09-09T18:22:58.070Z,17.90
2018-09-09T18:25:26.660Z,17.90
2018-09-09T18:27:55.327Z,17.80
2018-09-09T18:30:25.045Z,17.70
2018-09-09T18:32:54.651Z,17.60
2018-09-09T18:35:23.371Z,17.60
2018-09-09T18:37:52.251Z,17.50
2018-09-09T18:40:20.915Z,17.40
2018-09-09T18:42:49.495Z,17.40
2018-09-09T18:45:19.105Z,17.30
2018-09-09T18:47:47.848Z,17.20
2018-09-09T18:50:17.708Z,17.10
2018-09-09T18:52:53.052Z,17.00
2018-09-09T18:55:21.607Z,16.90
2018-09-09T18:57:50.203Z,16.90
2018-09-09T19:00:18.812Z,16.80
2018-09-09T19:02:48.716Z,16.80
2018-09-09T19:05:17.544Z,16.80
2018-09-09T19:07:46.214Z,16.70
2018-09-09T19:10:14.879Z,16.70
2018-09-09T19:12:44.581Z,16.70
2018-09-09T19:15:14.390Z,16.60
2018-09-09T19:17:43.486Z,16.60
2018-09-09T19:20:12.084Z,16.60
2018-09-09T19:22:41.475Z,16.60
2018-09-09T19:25:10.099Z,16.60
2018-09-09T19:27:40.040Z,16.50
2018-09-09T19:30:09.576Z,16.40
2018-09-09T19:32:38.379Z,16.30
2018-09-09T19:35:07.766Z,16.20
2018-09-09T19:37:36.387Z,16.20
2018-09-09T19:40:05.640Z,16.10
2018-09-09T19:42:34.962Z,16.10
2018-09-09T19:45:04.423Z,16.00
2018-09-09T19:47:33.196Z,15.90
2018-09-09T19:50:02.784Z,15.90
2018-09-09T19:52:31.326Z,15.90
2018-09-09T19:54:59.910Z,15.80
2018-09-09T19:57:28.506Z,15.80
2018-09-09T19:59:57.034Z,15.70
2018-09-09T20:02:25.679Z,15.70
2018-09-09T20:04:54.228Z,15.70
2018-09-09T20:07:22.799Z,15.60
2018-09-09T20:09:51.382Z,15.50
2018-09-09T20:12:20.351Z,15.50
2018-09-09T20:14:48.914Z,15.50
2018-09-09T20:17:17.483Z,15.40
2018-09-09T20:19:46.015Z,15.40
2018-09-09T20:22:14.574Z,15.40
2018-09-09T20:24:43.583Z,15.30
2018-09-09T20:27:12.130Z,15.30
2018-09-09T20:29:40.694Z,15.30
2018-09-09T20:32:09.298Z,15.30
2018-09-09T20:34:37.898Z,15.20
2018-09-09T20:37:06.526Z,15.20
2018-09-09T20:39:35.085Z,15.20
2018-09-09T20:42:03.854Z,15.10
2018-09-09T20:44:32.388Z,15.10
2018-09-09T20:47:01.003Z,15.10
2018-09-09T20:49:29.601Z,15.00
2018-09-09T20:51:58.152Z,15.00
2018-09-09T20:54:26.786Z,15.00
2018-09-09T20:56:55.480Z,15.00
2018-09-09T20:59:24.119Z,15.00
2018-09-09T21:01:52.711Z,15.00
2018-09-09T21:04:21.323Z,15.00
2018-09-09T21:06:49.907Z,15.00
2018-09-09T21:09:24.947Z,15.00
2018-09-09T21:11:56.560Z,15.00
2018-09-09T21:14:25.088Z,14.90
2018-09-09T21:16:53.727Z,14.90
2018-09-09T21:19:22.403Z,14.90
2018-09-09T21:21:51.030Z,14.90
2018-09-09T21:24:19.585Z,14.90
2018-09-09T21:26:48.127Z,14.80
2018-09-09T21:29:16.726Z,14.80
2018-09-09T21:31:45.271Z,14.90
2018-09-09T21:34:16.635Z,14.90
2018-09-09T21:36:45.218Z,14.80
2018-09-09T21:39:13.770Z,14.90
2018-09-09T21:41:42.297Z,14.90
2018-09-09T21:44:11.017Z,14.80
2018-09-09T21:46:39.558Z,14.80
2018-09-09T21:49:08.294Z,14.80
2018-09-09T21:51:36.942Z,14.80
2018-09-09T21:54:05.626Z,14.80
2018-09-09T21:56:34.169Z,14.80
2018-09-09T21:59:02.831Z,14.80
2018-09-09T22:01:37.062Z,14.80
2018-09-09T22:04:05.592Z,14.80
2018-09-09T22:06:34.262Z,14.80
2018-09-09T22:09:02.899Z,14.80
2018-09-09T22:11:31.446Z,14.80
2018-09-09T22:13:59.990Z,14.90
2018-09-09T22:16:28.576Z,14.80
2018-09-09T22:18:57.300Z,14.80
2018-09-09T22:21:25.872Z,14.90
2018-09-09T22:23:54.459Z,14.90
2018-09-09T22:26:23.000Z,14.90
2018-09-09T22:28:51.580Z,14.80
2018-09-09T22:31:20.116Z,14.90
2018-09-09T22:33:48.674Z,14.90
2018-09-09T22:36:17.242Z,14.90
2018-09-09T22:38:45.827Z,14.90
2018-09-09T22:41:14.482Z,14.90
2018-09-09T22:43:43.067Z,14.80
2018-09-09T22:46:11.602Z,14.90
2018-09-09T22:48:40.209Z,14.80
2018-09-09T22:51:08.762Z,14.80
2018-09-09T22:53:37.342Z,14.80
2018-09-09T22:56:05.954Z,14.90
2018-09-09T22:58:34.523Z,14.80
2018-09-09T23:01:03.110Z,14.80
2018-09-09T23:03:31.746Z,14.80
2018-09-09T23:06:00.318Z,14.80
2018-09-09T23:08:28.901Z,14.70
2018-09-09T23:10:57.461Z,14.70
2018-09-09T23:13:26.146Z,14.70
2018-09-09T23:15:54.720Z,14.70
2018-09-09T23:18:23.311Z,14.70
2018-09-09T23:20:51.902Z,14.70
2018-09-09T23:23:20.516Z,14.60
2018-09-09T23:25:49.079Z,14.60
2018-09-09T23:28:17.646Z,14.60
2018-09-09T23:30:46.265Z,14.60
2018-09-09T23:33:14.877Z,14.60
2018-09-09T23:35:43.526Z,14.60
2018-09-09T23:38:12.255Z,14.50
2018-09-09T23:40:41.015Z,14.50
2018-09-09T23:43:10.090Z,14.60
2018-09-09T23:45:38.654Z,14.60
2018-09-09T23:48:07.230Z,14.60
2018-09-09T23:50:35.778Z,14.60
2018-09-09T23:53:04.385Z,14.60
2018-09-09T23:55:32.986Z,14.50
2018-09-09T23:58:01.576Z,14.50
